Time;durP1;ratioP1;P1;durP2;ratioP2;P2;SDS_P1;SDS_P2;PMS_P1;PMS_P2;Temp;Humidity;BMP_temperature;BMP_pressure;BME280_temperature;BME280_humidity;BME280_pressure;Samples;Min_cycle;Max_cycle;Signal;HPM_P1;HPM_P2
2021/03/03 00:00:04;;;;;;;8.50;3.00;;;1.50;87.70;;;;;;5028499;28;20121;-58
2021/03/03 00:02:33;;;;;;;9.13;3.78;;;1.50;87.70;;;;;;5029855;28;20057;-58
2021/03/03 00:05:07;;;;;;;11.93;5.38;;;1.40;88.00;;;;;;5051105;28;20195;-58
2021/03/03 00:07:34;;;;;;;11.02;4.45;;;1.40;88.30;;;;;;5031379;28;20114;-58
2021/03/03 00:10:06;;;;;;;6.30;3.35;;;1.30;88.50;;;;;;5029367;28;20322;-58
2021/03/03 00:12:34;;;;;;;13.77;4.00;;;1.30;88.50;;;;;;5031876;28;20132;-58
2021/03/03 00:15:00;;;;;;;9.48;3.83;;;1.30;88.60;;;;;;5032906;28;20218;-58
2021/03/03 00:17:29;;;;;;;10.65;4.78;;;1.30;88.70;;;;;;5031653;28;20453;-58
2021/03/03 00:19:57;;;;;;;8.20;4.38;;;1.20;88.80;;;;;;5030949;28;20374;-58
2021/03/03 00:22:23;;;;;;;9.57;4.85;;;1.20;88.50;;;;;;5034829;28;20075;-58
2021/03/03 00:24:50;;;;;;;8.48;4.07;;;1.20;88.50;;;;;;5033239;28;20061;-58
2021/03/03 00:27:17;;;;;;;9.07;4.40;;;1.10;88.50;;;;;;5033701;28;20064;-58
2021/03/03 00:29:45;;;;;;;9.52;4.20;;;1.10;88.60;;;;;;5032567;28;20335;-58
2021/03/03 00:32:11;;;;;;;8.55;4.03;;;1.00;88.80;;;;;;5032901;28;20057;-58
2021/03/03 00:34:38;;;;;;;7.85;3.88;;;1.00;88.80;;;;;;5038644;28;20057;-58
2021/03/03 00:37:06;;;;;;;8.95;4.15;;;1.00;89.00;;;;;;5034587;28;20315;-58
2021/03/03 00:39:33;;;;;;;9.15;4.20;;;1.00;88.80;;;;;;5025923;28;20095;-58
2021/03/03 00:42:04;;;;;;;11.05;4.15;;;0.90;89.10;;;;;;5009197;28;20045;-58
2021/03/03 00:44:31;;;;;;;12.27;4.28;;;0.90;89.10;;;;;;5027265;28;20398;-58
2021/03/03 00:46:59;;;;;;;7.50;3.28;;;0.80;89.00;;;;;;5032115;28;20352;-57
2021/03/03 00:49:26;;;;;;;9.05;3.92;;;0.90;89.00;;;;;;5025425;28;20545;-57
2021/03/03 00:51:53;;;;;;;11.82;3.92;;;1.00;88.50;;;;;;5031141;28;20079;-57
2021/03/03 00:54:21;;;;;;;9.98;4.68;;;0.90;88.40;;;;;;5034998;28;20260;-58
2021/03/03 00:56:50;;;;;;;9.70;4.18;;;0.80;88.90;;;;;;5014901;28;20056;-57
2021/03/03 00:59:18;;;;;;;9.20;3.40;;;0.80;89.10;;;;;;5032636;28;20083;-58
2021/03/03 01:01:45;;;;;;;7.90;3.83;;;0.70;89.10;;;;;;5015734;28;20061;-57
2021/03/03 01:04:14;;;;;;;14.00;5.50;;;0.70;89.40;;;;;;5046550;28;20265;-58
2021/03/03 01:06:43;;;;;;;9.47;3.83;;;0.70;89.30;;;;;;5031055;28;20412;-58
2021/03/03 01:09:13;;;;;;;13.63;5.05;;;0.70;89.40;;;;;;5026224;28;20140;-58
2021/03/03 01:11:45;;;;;;;6.90;3.30;;;0.80;89.10;;;;;;5026783;28;20053;-57
2021/03/03 01:14:12;;;;;;;10.43;4.03;;;0.80;89.10;;;;;;5033795;28;20076;-57
2021/03/03 01:16:39;;;;;;;7.60;4.38;;;0.80;89.00;;;;;;5024917;28;20356;-57
2021/03/03 01:19:12;;;;;;;9.80;4.32;;;0.70;89.00;;;;;;5013396;28;20071;-57
2021/03/03 01:21:39;;;;;;;10.73;4.28;;;0.70;89.20;;;;;;5037496;28;20061;-57
2021/03/03 01:24:07;;;;;;;9.98;3.67;;;0.70;89.40;;;;;;5034999;28;20064;-58
2021/03/03 01:26:34;;;;;;;10.60;4.20;;;0.70;89.60;;;;;;5027686;28;20060;-58
2021/03/03 01:29:00;;;;;;;10.93;5.68;;;0.70;89.40;;;;;;5029719;28;20049;-58
2021/03/03 01:31:33;;;;;;;8.30;3.72;;;0.70;89.20;;;;;;5029582;28;20241;-58
2021/03/03 01:34:00;;;;;;;9.73;3.70;;;0.70;89.20;;;;;;5032328;28;20432;-58
2021/03/03 01:36:30;;;;;;;9.50;4.40;;;0.70;89.10;;;;;;5033638;28;20228;-57
2021/03/03 01:38:57;;;;;;;8.20;3.75;;;0.70;88.90;;;;;;5032694;28;20103;-57
2021/03/03 01:41:24;;;;;;;13.07;4.30;;;0.70;88.80;;;;;;5031833;28;20340;-58
2021/03/03 01:43:50;;;;;;;11.05;3.58;;;0.60;89.10;;;;;;5034622;28;20348;-58
2021/03/03 01:46:19;;;;;;;8.25;3.55;;;0.60;89.30;;;;;;5012261;28;20108;-58
2021/03/03 01:48:45;;;;;;;8.40;3.90;;;0.60;89.40;;;;;;5030655;28;20057;-58
2021/03/03 01:51:15;;;;;;;9.95;4.05;;;0.70;89.40;;;;;;5039894;28;20061;-58
2021/03/03 01:53:43;;;;;;;8.82;4.30;;;0.70;89.10;;;;;;5034529;28;20242;-58
2021/03/03 01:56:11;;;;;;;9.95;3.67;;;0.70;88.70;;;;;;5033709;28;20065;-58
2021/03/03 01:58:38;;;;;;;12.15;4.82;;;0.70;88.60;;;;;;5035779;28;20521;-57
2021/03/03 02:01:05;;;;;;;8.13;4.13;;;0.50;89.10;;;;;;5036515;28;20050;-58
2021/03/03 02:03:32;;;;;;;11.07;5.68;;;0.50;89.50;;;;;;5034304;28;20121;-58
2021/03/03 02:06:05;;;;;;;8.90;5.40;;;0.60;89.60;;;;;;5037362;28;20042;-57
2021/03/03 02:08:36;;;;;;;8.63;3.15;;;0.60;89.40;;;;;;5035714;28;20123;-57
2021/03/03 02:11:13;;;;;;;13.20;4.28;;;0.50;89.90;;;;;;5038767;28;20067;-58
2021/03/03 02:13:42;;;;;;;9.05;3.92;;;0.50;90.20;;;;;;5038535;28;20361;-58
2021/03/03 02:16:12;;;;;;;6.57;3.65;;;0.40;90.30;;;;;;5042245;28;20056;-57
2021/03/03 02:18:41;;;;;;;9.05;3.75;;;0.40;90.50;;;;;;5041987;28;20065;-57
2021/03/03 02:21:13;;;;;;;10.25;3.95;;;0.50;90.50;;;;;;5035295;28;20046;-57
2021/03/03 02:23:48;;;;;;;13.38;4.53;;;0.40;90.40;;;;;;5035276;28;20344;-57
2021/03/03 02:26:17;;;;;;;11.63;3.80;;;0.40;90.40;;;;;;5033578;28;20053;-57
2021/03/03 02:28:45;;;;;;;10.35;4.63;;;0.40;90.50;;;;;;5035625;28;20080;-57
2021/03/03 02:31:22;;;;;;;12.75;5.88;;;0.30;90.60;;;;;;5034889;28;20344;-57
2021/03/03 02:33:49;;;;;;;10.00;3.78;;;0.30;90.50;;;;;;5038220;28;20053;-57
2021/03/03 02:36:16;;;;;;;8.10;3.63;;;0.30;90.50;;;;;;5035059;28;20073;-58
2021/03/03 02:38:43;;;;;;;8.38;2.80;;;0.40;90.50;;;;;;5034340;28;20080;-57
2021/03/03 02:41:11;;;;;;;8.98;3.50;;;0.50;90.00;;;;;;5043114;28;20352;-57
2021/03/03 02:43:39;;;;;;;9.48;4.20;;;0.50;90.00;;;;;;5036617;28;20061;-57
2021/03/03 02:46:06;;;;;;;13.93;5.18;;;0.40;90.10;;;;;;5036291;28;20241;-57
2021/03/03 02:48:33;;;;;;;9.38;3.83;;;0.40;90.30;;;;;;5035598;28;20390;-58
2021/03/03 02:51:06;;;;;;;10.00;4.45;;;0.50;89.80;;;;;;5042592;28;20045;-57
2021/03/03 02:53:33;;;;;;;9.52;3.88;;;0.50;89.30;;;;;;5034573;28;20051;-57
2021/03/03 02:56:01;;;;;;;8.30;3.72;;;0.50;89.50;;;;;;5037085;28;20053;-56
2021/03/03 02:58:30;;;;;;;7.43;3.58;;;0.50;89.20;;;;;;5040195;28;20055;-57
2021/03/03 03:01:02;;;;;;;9.05;3.15;;;0.50;89.10;;;;;;5034759;28;20053;-57
2021/03/03 03:03:34;;;;;;;10.45;3.55;;;0.40;89.10;;;;;;5039507;28;20356;-57
2021/03/03 03:06:05;;;;;;;11.45;4.75;;;0.40;89.30;;;;;;5038426;28;20041;-57
2021/03/03 03:08:32;;;;;;;;;;;0.40;89.40;;;;;;5042773;28;20412;-57
2021/03/03 03:11:02;;;;;;;7.15;2.60;;;0.30;89.40;;;;;;5035890;28;19924;-57
2021/03/03 03:13:33;;;;;;;7.25;3.72;;;0.30;89.40;;;;;;5040494;28;20049;-57
2021/03/03 03:16:03;;;;;;;8.45;3.65;;;0.20;89.50;;;;;;5038288;28;20049;-57
2021/03/03 03:18:33;;;;;;;7.55;3.28;;;0.10;90.10;;;;;;5039572;28;20080;-57
2021/03/03 03:21:02;;;;;;;7.63;3.85;;;0.10;90.20;;;;;;5039673;28;20073;-57
2021/03/03 03:23:37;;;;;;;8.15;3.47;;;0.00;90.30;;;;;;5030723;28;20087;-57
2021/03/03 03:26:05;;;;;;;10.98;4.47;;;0.00;90.30;;;;;;5036550;28;20056;-57
2021/03/03 03:28:36;;;;;;;9.70;3.38;;;0.00;90.60;;;;;;5039261;28;20068;-57
2021/03/03 03:31:05;;;;;;;13.05;3.83;;;0.00;90.50;;;;;;5036214;28;20053;-57
2021/03/03 03:33:33;;;;;;;13.65;4.32;;;0.10;90.10;;;;;;5037257;28;20065;-57
2021/03/03 03:36:01;;;;;;;11.68;3.38;;;0.10;90.30;;;;;;5033049;28;20041;-57
2021/03/03 03:38:31;;;;;;;11.32;3.47;;;0.20;90.20;;;;;;5032457;28;20248;-57
2021/03/03 03:41:00;;;;;;;7.78;2.50;;;0.20;90.10;;;;;;5036425;28;20052;-57
2021/03/03 03:43:31;;;;;;;9.13;4.20;;;0.30;89.70;;;;;;5036984;28;20325;-57
2021/03/03 03:45:58;;;;;;;10.90;4.45;;;0.30;89.50;;;;;;5021322;28;20100;-57
2021/03/03 03:48:27;;;;;;;9.43;3.00;;;0.30;89.50;;;;;;5036996;28;20068;-57
2021/03/03 03:50:57;;;;;;;7.28;3.25;;;0.20;89.50;;;;;;5038909;28;20046;-57
2021/03/03 03:53:24;;;;;;;7.78;3.85;;;0.20;89.60;;;;;;5039065;28;20402;-57
2021/03/03 03:55:51;;;;;;;11.40;3.80;;;0.20;89.60;;;;;;5038270;28;20037;-57
2021/03/03 03:58:18;;;;;;;17.70;3.90;;;0.30;89.50;;;;;;5029825;28;20076;-57
2021/03/03 04:00:48;;;;;;;6.95;3.05;;;0.30;89.50;;;;;;5033087;28;20068;-57
2021/03/03 04:03:15;;;;;;;7.93;4.03;;;0.20;89.80;;;;;;5034712;28;20390;-57
2021/03/03 04:05:46;;;;;;;8.20;3.13;;;0.10;90.10;;;;;;5036097;28;20124;-57
2021/03/03 04:08:12;;;;;;;7.90;3.15;;;0.10;90.40;;;;;;5034378;28;20061;-57
2021/03/03 04:10:39;;;;;;;10.38;4.18;;;0.10;90.20;;;;;;5037891;28;20052;-57
2021/03/03 04:13:07;;;;;;;7.65;3.22;;;0.10;90.40;;;;;;5033922;28;20092;-57
2021/03/03 04:15:33;;;;;;;7.47;3.15;;;0.10;90.30;;;;;;5031818;28;20076;-57
2021/03/03 04:18:00;;;;;;;11.52;4.10;;;0.10;90.20;;;;;;5034151;28;20037;-57
2021/03/03 04:20:29;;;;;;;9.15;3.03;;;0.00;90.30;;;;;;5029063;28;20041;-57
2021/03/03 04:22:56;;;;;;;9.50;4.70;;;0.00;90.40;;;;;;5028042;28;20053;-58
2021/03/03 04:25:23;;;;;;;8.85;3.95;;;0.00;90.50;;;;;;5034317;28;20056;-57
2021/03/03 04:27:50;;;;;;;13.80;4.20;;;0.00;90.70;;;;;;5040236;28;20350;-57
2021/03/03 04:30:18;;;;;;;6.18;2.83;;;0.00;90.70;;;;;;5037088;28;20678;-57
2021/03/03 04:32:45;;;;;;;8.88;3.78;;;0.20;90.40;;;;;;5039188;28;20099;-57
2021/03/03 04:35:12;;;;;;;9.35;4.22;;;0.20;90.10;;;;;;5041397;28;20059;-57
2021/03/03 04:37:39;;;;;;;9.35;3.70;;;0.20;90.00;;;;;;5038860;28;20106;-57
2021/03/03 04:40:09;;;;;;;10.43;3.88;;;0.20;89.80;;;;;;5037992;28;20052;-57
2021/03/03 04:42:36;;;;;;;6.43;3.10;;;0.30;89.30;;;;;;5037670;28;20245;-57
2021/03/03 04:45:08;;;;;;;5.97;2.53;;;0.20;89.40;;;;;;5038700;28;20120;-57
2021/03/03 04:47:36;;;;;;;11.65;4.40;;;0.10;89.80;;;;;;5038036;28;20053;-57
2021/03/03 04:50:06;;;;;;;10.20;4.35;;;0.10;89.70;;;;;;5037258;28;20056;-57
2021/03/03 04:52:33;;;;;;;8.23;3.65;;;0.10;89.90;;;;;;5039252;28;20059;-57
2021/03/03 04:55:00;;;;;;;12.48;4.55;;;0.00;90.00;;;;;;5036966;28;20576;-57
2021/03/03 04:57:32;;;;;;;6.25;2.53;;;0.20;90.00;;;;;;5030960;28;20146;-57
2021/03/03 04:59:58;;;;;;;9.50;3.47;;;0.20;89.90;;;;;;5031077;28;20061;-57
2021/03/03 05:02:27;;;;;;;13.55;4.55;;;0.20;89.70;;;;;;5029691;28;20044;-57
2021/03/03 05:04:57;;;;;;;8.45;3.55;;;0.20;89.80;;;;;;5032543;28;20329;-57
2021/03/03 05:07:24;;;;;;;9.10;4.32;;;0.30;89.40;;;;;;5027917;28;20050;-57
2021/03/03 05:09:51;;;;;;;9.07;3.40;;;0.40;88.80;;;;;;5032839;28;20222;-57
2021/03/03 05:12:17;;;;;;;11.73;3.72;;;0.40;88.80;;;;;;5029425;28;20640;-57
2021/03/03 05:14:45;;;;;;;12.77;3.83;;;0.50;88.50;;;;;;5028011;28;20160;-57
2021/03/03 05:17:15;;;;;;;9.38;3.40;;;0.50;88.20;;;;;;5036470;28;20052;-57
2021/03/03 05:19:42;;;;;;;11.23;3.70;;;0.40;88.30;;;;;;5035941;28;20060;-57
2021/03/03 05:22:08;;;;;;;12.88;4.72;;;0.40;88.60;;;;;;5028904;28;20053;-57
2021/03/03 05:24:35;;;;;;;9.93;3.92;;;0.40;88.60;;;;;;5028361;28;20064;-57
2021/03/03 05:27:04;;;;;;;8.00;4.07;;;0.40;88.60;;;;;;5035265;28;20061;-57
2021/03/03 05:29:31;;;;;;;10.57;3.53;;;0.30;88.80;;;;;;5030410;28;20057;-57
2021/03/03 05:31:59;;;;;;;8.73;3.75;;;0.30;89.10;;;;;;5034080;28;20053;-59
2021/03/03 05:34:26;;;;;;;7.85;4.30;;;0.30;89.20;;;;;;5030378;28;20061;-57
2021/03/03 05:36:53;;;;;;;6.78;2.95;;;0.30;89.30;;;;;;5029890;28;20060;-57
2021/03/03 05:39:20;;;;;;;7.40;3.90;;;0.20;89.50;;;;;;5012981;28;20256;-57
2021/03/03 05:41:47;;;;;;;11.00;4.03;;;0.20;89.50;;;;;;5035354;28;20095;-57
2021/03/03 05:44:14;;;;;;;7.25;4.20;;;0.20;90.10;;;;;;5038548;28;20107;-57
2021/03/03 05:46:43;;;;;;;5.65;2.92;;;0.20;90.00;;;;;;5041182;28;20060;-57
2021/03/03 05:49:16;;;;;;;10.30;2.95;;;0.20;90.40;;;;;;5038129;28;20069;-57
2021/03/03 05:51:43;;;;;;;6.60;3.00;;;0.20;90.10;;;;;;5039217;28;20114;-57
2021/03/03 05:54:11;;;;;;;9.93;3.65;;;0.20;90.20;;;;;;5039745;28;20057;-57
2021/03/03 05:56:38;;;;;;;9.57;3.80;;;0.20;90.40;;;;;;5038294;28;20045;-57
2021/03/03 05:59:25;;;;;;;10.52;3.20;;;0.30;90.40;;;;;;5025814;28;20045;-57
2021/03/03 06:01:52;;;;;;;13.55;3.45;;;0.30;90.10;;;;;;5044602;28;20057;-57
2021/03/03 06:04:20;;;;;;;10.73;4.72;;;0.30;90.10;;;;;;5040205;28;20057;-57
2021/03/03 06:06:47;;;;;;;9.38;3.75;;;0.30;90.00;;;;;;5042011;28;20266;-57
2021/03/03 06:09:14;;;;;;;8.57;4.15;;;0.40;90.00;;;;;;5039983;28;20041;-57
2021/03/03 06:11:41;;;;;;;8.25;3.97;;;0.30;89.80;;;;;;5040555;28;20209;-57
2021/03/03 06:14:08;;;;;;;7.95;3.63;;;0.30;89.90;;;;;;5039775;28;20045;-57
2021/03/03 06:16:35;;;;;;;17.23;5.55;;;0.30;90.00;;;;;;5037456;28;20041;-57
2021/03/03 06:19:03;;;;;;;12.90;4.82;;;0.50;90.00;;;;;;5033685;28;20057;-57
2021/03/03 06:21:32;;;;;;;12.32;3.67;;;0.60;89.40;;;;;;5033456;28;20766;-57
2021/03/03 06:24:00;;;;;;;10.43;4.57;;;0.60;89.00;;;;;;5038971;28;20057;-57
2021/03/03 06:26:29;;;;;;;8.73;4.00;;;0.60;88.80;;;;;;5048183;28;20059;-58
2021/03/03 06:28:56;;;;;;;10.68;3.70;;;0.70;88.40;;;;;;5031089;28;20092;-57
2021/03/03 06:31:26;;;;;;;9.88;4.35;;;0.50;88.40;;;;;;5035830;28;20299;-58
2021/03/03 06:33:55;;;;;;;8.07;3.67;;;0.50;89.00;;;;;;5015053;28;20057;-57
2021/03/03 06:36:23;;;;;;;10.60;4.35;;;0.50;89.10;;;;;;5034063;28;20328;-57
2021/03/03 06:38:50;;;;;;;9.60;4.22;;;0.60;88.90;;;;;;5030390;28;20045;-57
2021/03/03 06:41:17;;;;;;;7.93;4.10;;;0.60;88.90;;;;;;5030542;28;20367;-56
2021/03/03 06:43:56;;;;;;;10.48;4.13;;;0.60;89.10;;;;;;5033978;28;20375;-57
2021/03/03 06:46:23;;;;;;;13.07;5.90;;;0.70;89.30;;;;;;5034658;28;20260;-58
2021/03/03 06:48:54;;;;;;;7.78;3.72;;;0.70;88.80;;;;;;5032715;28;20083;-57
2021/03/03 06:51:26;;;;;;;8.23;3.90;;;0.80;88.70;;;;;;5028622;28;20061;-57
2021/03/03 06:53:55;;;;;;;10.95;4.28;;;0.80;88.50;;;;;;5032839;28;20068;-57
2021/03/03 06:56:47;;;;;;;9.68;4.65;;;0.90;88.40;;;;;;5030911;28;20179;-56
2021/03/03 06:59:16;;;;;;;9.32;4.20;;;1.00;88.00;;;;;;5018432;28;20069;-58
2021/03/03 07:01:44;;;;;;;10.77;3.20;;;1.10;87.70;;;;;;5034007;28;20049;-57
2021/03/03 07:04:23;;;;;;;10.40;3.97;;;1.30;87.60;;;;;;5031856;28;20065;-57
2021/03/03 07:06:51;;;;;;;9.05;3.53;;;1.40;86.80;;;;;;5036205;28;20115;-57
2021/03/03 07:09:19;;;;;;;9.23;4.60;;;1.40;86.50;;;;;;5040517;28;20677;-58
2021/03/03 07:11:46;;;;;;;10.00;3.88;;;1.40;86.50;;;;;;5040758;28;20312;-57
2021/03/03 07:14:15;;;;;;;13.98;5.07;;;1.50;86.10;;;;;;5040713;28;20045;-57
2021/03/03 07:17:08;;;;;;;7.97;3.88;;;1.50;86.10;;;;;;5043335;28;20107;-57
2021/03/03 07:19:36;;;;;;;12.80;5.55;;;1.50;86.30;;;;;;5034737;28;20519;-57
2021/03/03 07:22:05;;;;;;;8.95;3.55;;;1.40;85.90;;;;;;5030391;28;20224;-57
2021/03/03 07:24:33;;;;;;;8.88;3.90;;;1.60;86.20;;;;;;5031443;28;20159;-57
2021/03/03 07:27:05;;;;;;;14.13;4.88;;;1.70;85.80;;;;;;5033156;28;20045;-57
2021/03/03 07:29:33;;;;;;;10.50;3.78;;;1.60;85.90;;;;;;5028231;28;20276;-57
2021/03/03 07:32:00;;;;;;;8.88;4.88;;;1.70;86.20;;;;;;5029840;28;20049;-58
2021/03/03 07:34:34;;;;;;;10.93;3.92;;;1.90;85.70;;;;;;5031738;28;20041;-57
2021/03/03 07:37:02;;;;;;;11.88;4.28;;;1.80;85.00;;;;;;5033057;28;20408;-57
2021/03/03 07:39:38;;;;;;;8.93;4.32;;;1.90;85.10;;;;;;5034803;28;20429;-57
2021/03/03 07:42:09;;;;;;;11.00;4.22;;;2.00;85.20;;;;;;5034409;28;20218;-57
2021/03/03 07:44:42;;;;;;;12.00;5.38;;;2.20;85.00;;;;;;5035012;28;20479;-58
2021/03/03 07:47:11;;;;;;;10.38;4.93;;;2.20;84.80;;;;;;5033210;28;20367;-58
2021/03/03 07:49:39;;;;;;;12.73;5.57;;;2.30;85.10;;;;;;5033846;28;20233;-58
2021/03/03 07:52:07;;;;;;;12.40;5.53;;;2.50;84.50;;;;;;5033512;28;20062;-58
2021/03/03 07:54:35;;;;;;;16.60;4.63;;;2.70;83.70;;;;;;5032566;28;20060;-58
2021/03/03 07:57:04;;;;;;;12.82;5.75;;;2.80;82.80;;;;;;5032849;28;20049;-58
2021/03/03 07:59:32;;;;;;;14.88;6.22;;;2.90;82.40;;;;;;5032337;28;20053;-58
2021/03/03 08:01:58;;;;;;;10.43;6.47;;;3.00;82.30;;;;;;5033804;28;20080;-58
2021/03/03 08:04:36;;;;;;;15.15;6.60;;;3.00;81.90;;;;;;5032279;28;20121;-58
2021/03/03 08:07:15;;;;;;;15.45;4.70;;;3.10;82.00;;;;;;5033286;28;20442;-58
2021/03/03 08:10:27;;;;;;;10.82;4.00;;;3.10;81.80;;;;;;5034177;28;20061;-58
2021/03/03 08:13:06;;;;;;;10.93;4.65;;;3.20;81.10;;;;;;5035052;28;20551;-58
2021/03/03 08:15:38;;;;;;;15.93;5.50;;;3.30;80.80;;;;;;5037024;28;20076;-58
2021/03/03 08:18:29;;;;;;;10.55;4.35;;;3.30;81.30;;;;;;5039426;28;20356;-57
2021/03/03 08:20:58;;;;;;;12.87;5.03;;;3.50;80.30;;;;;;5029232;28;20107;-58
2021/03/03 08:23:45;;;;;;;11.85;5.05;;;3.60;80.10;;;;;;5029800;28;20232;-58
2021/03/03 08:26:33;;;;;;;12.48;5.03;;;3.70;79.80;;;;;;5032530;28;20240;-59
2021/03/03 08:29:17;;;;;;;12.00;5.05;;;3.70;79.60;;;;;;5034460;28;20041;-58
2021/03/03 08:31:44;;;;;;;9.25;4.95;;;3.70;79.90;;;;;;5033787;28;20279;-58
2021/03/03 08:34:17;;;;;;;11.08;4.32;;;3.70;79.80;;;;;;2574661;28;10003025;-57
2021/03/03 08:36:56;;;;;;;11.00;4.93;;;3.90;79.80;;;;;;2949752;28;10001146;-58
2021/03/03 08:39:32;;;;;;;14.25;5.10;;;3.90;79.70;;;;;;5038979;28;21622;-58
2021/03/03 08:42:03;;;;;;;14.73;6.28;;;4.00;80.00;;;;;;5040079;28;20065;-58
2021/03/03 08:44:31;;;;;;;8.93;4.07;;;4.10;79.10;;;;;;5039759;28;20110;-58
2021/03/03 08:46:59;;;;;;;12.23;5.38;;;4.20;79.20;;;;;;5042905;28;20337;-58
2021/03/03 08:49:32;;;;;;;11.68;4.50;;;4.30;78.90;;;;;;5040130;28;20038;-58
2021/03/03 08:52:13;;;;;;;10.57;4.97;;;4.30;79.10;;;;;;5039923;28;20076;-57
2021/03/03 08:54:43;;;;;;;12.68;5.03;;;4.40;78.90;;;;;;5039365;28;20079;-57
2021/03/03 08:57:37;;;;;;;16.02;5.63;;;4.50;78.20;;;;;;5039479;28;20054;-57
2021/03/03 09:00:18;;;;;;;10.48;4.68;;;4.60;78.50;;;;;;5039722;28;20060;-58
2021/03/03 09:02:47;;;;;;;11.93;4.63;;;4.90;77.70;;;;;;5033446;28;20064;-58
2021/03/03 09:05:14;;;;;;;14.45;4.57;;;5.20;76.50;;;;;;5028771;28;20053;-59
2021/03/03 09:07:41;;;;;;;14.20;5.22;;;5.50;75.50;;;;;;5028802;28;20050;-59
2021/03/03 09:10:15;;;;;;;11.27;4.65;;;5.80;74.80;;;;;;5036588;28;20244;-58
2021/03/03 09:12:44;;;;;;;10.35;4.53;;;6.00;73.90;;;;;;5039309;28;20253;-59
2021/03/03 09:15:13;;;;;;;10.13;4.80;;;6.30;73.50;;;;;;5039179;28;20351;-58
2021/03/03 09:17:40;;;;;;;12.85;5.22;;;6.60;71.70;;;;;;5039050;28;20049;-59
2021/03/03 09:20:10;;;;;;;13.48;5.13;;;6.60;71.80;;;;;;5038059;28;20107;-60
2021/03/03 09:22:39;;;;;;;12.93;5.10;;;6.70;71.10;;;;;;5039006;28;20053;-58
2021/03/03 09:25:11;;;;;;;10.75;4.43;;;6.70;71.60;;;;;;5041676;28;20072;-59
2021/03/03 09:27:39;;;;;;;9.25;4.60;;;6.80;71.80;;;;;;5042243;28;20046;-59
2021/03/03 09:30:07;;;;;;;11.48;3.47;;;7.10;70.70;;;;;;5039103;28;20115;-59
2021/03/03 09:32:35;;;;;;;10.45;5.55;;;7.20;69.40;;;;;;5041350;28;20233;-59
2021/03/03 09:35:06;;;;;;;15.95;6.07;;;7.00;69.60;;;;;;5036183;28;20049;-59
2021/03/03 09:37:38;;;;;;;13.20;6.03;;;7.60;69.50;;;;;;5030844;28;20060;-59
2021/03/03 09:40:07;;;;;;;15.32;6.57;;;7.90;67.80;;;;;;5030289;28;20077;-59
2021/03/03 09:42:40;;;;;;;12.65;5.60;;;8.10;67.00;;;;;;5031555;28;20378;-58
2021/03/03 09:45:09;;;;;;;12.77;4.57;;;8.40;66.00;;;;;;5019472;28;20057;-58
2021/03/03 09:47:55;;;;;;;11.90;5.80;;;9.00;64.10;;;;;;5036936;28;20081;-58
2021/03/03 09:50:24;;;;;;;15.88;5.75;;;9.70;62.40;;;;;;5035104;28;20351;-58
2021/03/03 09:52:52;;;;;;;12.82;5.90;;;10.00;59.60;;;;;;5033704;28;20053;-59
2021/03/03 09:55:20;;;;;;;13.10;5.70;;;10.20;59.90;;;;;;5033888;28;20057;-59
2021/03/03 09:57:50;;;;;;;10.52;4.78;;;10.70;58.50;;;;;;5036887;28;20053;-58
2021/03/03 10:00:18;;;;;;;14.02;6.10;;;11.10;57.20;;;;;;5034103;28;21165;-58
2021/03/03 10:02:48;;;;;;;12.00;4.38;;;11.20;55.80;;;;;;5038601;28;20084;-59
2021/03/03 10:05:18;;;;;;;13.38;5.22;;;11.00;56.90;;;;;;5037509;28;20052;-58
2021/03/03 10:07:50;;;;;;;16.27;4.70;;;10.80;57.40;;;;;;5034838;28;20332;-59
2021/03/03 10:10:18;;;;;;;10.55;4.85;;;10.60;57.70;;;;;;5039097;28;20119;-59
2021/03/03 10:12:45;;;;;;;13.95;6.68;;;10.70;57.70;;;;;;5035302;28;20049;-59
2021/03/03 10:15:14;;;;;;;17.90;4.75;;;10.80;57.00;;;;;;5033752;28;20049;-59
2021/03/03 10:17:43;;;;;;;28.52;6.55;;;10.80;57.00;;;;;;5037196;28;20046;-59
2021/03/03 10:20:30;;;;;;;13.32;5.55;;;11.00;56.90;;;;;;5037545;28;20114;-58
2021/03/03 10:22:59;;;;;;;11.85;5.28;;;11.10;57.70;;;;;;5036436;28;20045;-58
2021/03/03 10:25:31;;;;;;;14.15;6.00;;;11.20;57.40;;;;;;5036915;28;20099;-59
2021/03/03 10:28:13;;;;;;;12.48;4.68;;;11.40;57.30;;;;;;5033436;28;20051;-59
2021/03/03 10:30:43;;;;;;;13.20;6.38;;;11.70;57.10;;;;;;5040762;28;20049;-59
2021/03/03 10:33:12;;;;;;;12.25;5.10;;;11.70;55.70;;;;;;5042030;28;20060;-59
2021/03/03 10:35:48;;;;;;;11.65;5.30;;;11.70;55.70;;;;;;5034624;28;20045;-58
2021/03/03 10:38:17;;;;;;;15.90;6.53;;;11.70;54.80;;;;;;5037471;28;20119;-59
2021/03/03 10:40:45;;;;;;;11.77;5.28;;;12.20;53.70;;;;;;5035676;28;20361;-59
2021/03/03 10:43:13;;;;;;;12.60;5.25;;;12.10;53.00;;;;;;5035280;28;20045;-59
2021/03/03 10:45:41;;;;;;;12.68;5.78;;;12.40;53.00;;;;;;5036524;28;20049;-59
2021/03/03 10:48:09;;;;;;;13.38;4.95;;;12.40;52.80;;;;;;5037766;28;20057;-58
2021/03/03 10:50:48;;;;;;;16.40;5.88;;;12.70;51.10;;;;;;5037922;28;20064;-58
2021/03/03 10:53:16;;;;;;;17.98;5.93;;;12.80;51.60;;;;;;5037144;28;20053;-58
2021/03/03 10:55:43;;;;;;;12.07;5.15;;;12.80;51.60;;;;;;5033034;28;20064;-59
2021/03/03 10:58:11;;;;;;;16.02;5.60;;;13.10;51.10;;;;;;5034938;28;20043;-58
2021/03/03 11:00:57;;;;;;;11.73;5.75;;;13.10;51.90;;;;;;5041826;28;20057;-59
2021/03/03 11:03:25;;;;;;;13.75;5.97;;;13.60;51.20;;;;;;5041231;28;21640;-58
2021/03/03 11:05:54;;;;;;;12.98;5.55;;;14.20;49.90;;;;;;5041168;28;20053;-58
2021/03/03 11:08:22;;;;;;;16.48;5.60;;;15.10;47.10;;;;;;5037472;28;20084;-59
2021/03/03 11:11:06;;;;;;;16.65;6.10;;;15.60;44.70;;;;;;5052182;28;20115;-59
2021/03/03 11:13:35;;;;;;;13.38;6.57;;;16.40;42.60;;;;;;5041009;28;20268;-59
2021/03/03 11:16:07;;;;;;;21.05;6.60;;;16.80;42.40;;;;;;5040566;28;20162;-58
2021/03/03 11:18:34;;;;;;;14.52;6.97;;;17.60;40.30;;;;;;5040299;28;20076;-59
2021/03/03 11:21:02;;;;;;;17.00;6.90;;;17.90;40.20;;;;;;5018032;28;20042;-58
2021/03/03 11:23:30;;;;;;;14.13;6.70;;;18.40;38.40;;;;;;5037946;28;20191;-59
2021/03/03 11:25:58;;;;;;;17.90;7.80;;;18.60;38.50;;;;;;5035653;28;20383;-59
2021/03/03 11:28:25;;;;;;;20.83;8.43;;;18.70;37.00;;;;;;5033316;28;20063;-59
2021/03/03 11:30:52;;;;;;;16.73;9.20;;;19.50;36.60;;;;;;5037381;28;20060;-59
2021/03/03 11:33:19;;;;;;;17.73;8.20;;;19.90;35.40;;;;;;5038174;28;20110;-58
2021/03/03 11:35:46;;;;;;;18.65;8.85;;;20.60;33.40;;;;;;5035519;28;20056;-59
2021/03/03 11:38:13;;;;;;;16.90;8.48;;;20.60;34.90;;;;;;5033110;28;20042;-59
2021/03/03 11:40:41;;;;;;;16.45;8.68;;;20.60;34.20;;;;;;5032691;28;20046;-60
2021/03/03 11:43:08;;;;;;;19.45;7.93;;;21.40;33.90;;;;;;5032322;28;20061;-59
2021/03/03 11:45:34;;;;;;;19.23;8.15;;;21.80;31.40;;;;;;5035044;28;20268;-59
2021/03/03 11:48:02;;;;;;;16.33;8.35;;;21.90;31.40;;;;;;5035591;28;20049;-59
2021/03/03 11:50:29;;;;;;;16.63;7.72;;;23.00;31.00;;;;;;5035158;28;20045;-59
2021/03/03 11:52:56;;;;;;;16.00;8.30;;;23.60;29.60;;;;;;5033293;28;20244;-59
2021/03/03 11:55:23;;;;;;;20.00;7.55;;;23.60;28.60;;;;;;5032783;28;20038;-59
2021/03/03 11:57:51;;;;;;;16.00;7.75;;;22.70;29.40;;;;;;5032174;28;20337;-59
2021/03/03 12:00:19;;;;;;;18.33;9.40;;;22.40;30.20;;;;;;5032494;28;21090;-59
2021/03/03 12:02:46;;;;;;;21.75;8.95;;;21.60;31.30;;;;;;5033003;28;20040;-59
2021/03/03 12:05:14;;;;;;;17.35;8.57;;;21.30;31.40;;;;;;5033572;28;20052;-59
2021/03/03 12:07:40;;;;;;;15.00;8.02;;;21.50;31.10;;;;;;5032691;28;20071;-59
2021/03/03 12:10:08;;;;;;;20.42;8.75;;;21.70;31.40;;;;;;5032487;28;20049;-59
2021/03/03 12:12:35;;;;;;;17.23;8.20;;;21.80;31.50;;;;;;5034226;28;20540;-58
2021/03/03 12:15:04;;;;;;;14.43;7.40;;;21.60;31.80;;;;;;5033454;28;20049;-59
2021/03/03 12:17:31;;;;;;;16.35;8.40;;;21.50;31.10;;;;;;5036081;28;20245;-59
2021/03/03 12:19:58;;;;;;;22.40;8.77;;;22.30;30.90;;;;;;5032209;28;20068;-58
2021/03/03 12:22:24;;;;;;;17.92;8.68;;;22.60;30.30;;;;;;5032109;28;20243;-58
2021/03/03 12:24:51;;;;;;;16.40;8.32;;;22.10;30.90;;;;;;5036388;28;20049;-58
2021/03/03 12:27:18;;;;;;;20.08;9.60;;;22.10;30.80;;;;;;5028358;28;20367;-60
2021/03/03 12:29:47;;;;;;;16.75;8.85;;;23.10;29.80;;;;;;5033923;28;20033;-58
2021/03/03 12:32:16;;;;;;;21.70;8.95;;;22.70;30.60;;;;;;5018113;28;20054;-58
2021/03/03 12:34:42;;;;;;;18.02;7.85;;;23.30;29.80;;;;;;5032502;28;20112;-59
2021/03/03 12:37:10;;;;;;;17.42;8.63;;;23.70;29.90;;;;;;5029895;28;20049;-59
2021/03/03 12:39:36;;;;;;;21.50;10.05;;;23.70;29.10;;;;;;5031225;28;20098;-59
2021/03/03 12:42:04;;;;;;;17.52;9.65;;;24.30;28.00;;;;;;5030754;28;20053;-59
2021/03/03 12:44:30;;;;;;;18.15;8.98;;;24.60;27.40;;;;;;5032460;28;20057;-59
2021/03/03 12:46:57;;;;;;;18.63;9.10;;;23.60;29.00;;;;;;5042489;28;20068;-59
2021/03/03 12:49:25;;;;;;;16.58;8.38;;;23.00;29.60;;;;;;5031207;28;20054;-59
2021/03/03 12:51:52;;;;;;;19.70;9.38;;;23.10;29.90;;;;;;5031133;28;20057;-58
2021/03/03 12:54:18;;;;;;;21.00;9.23;;;22.80;30.00;;;;;;5014181;28;20668;-58
2021/03/03 12:56:45;;;;;;;19.45;8.65;;;21.70;31.90;;;;;;5030978;28;20363;-59
2021/03/03 12:59:12;;;;;;;20.02;9.77;;;23.30;29.80;;;;;;5033073;28;20057;-59